Time;durP1;ratioP1;P1;durP2;ratioP2;P2;SDS_P1;SDS_P2;PMS_P1;PMS_P2;Temp;Humidity;BMP_temperature;BMP_pressure;BME280_temperature;BME280_humidity;BME280_pressure;Samples;Min_cycle;Max_cycle;Signal;HPM_P1;HPM_P2
2020/12/09 00:00:01;;;;;;;11.90;6.97;;;3.30;99.90;;;;;;4992669;28;20204;-74
2020/12/09 00:02:27;;;;;;;13.50;6.50;;;3.30;99.90;;;;;;4998846;28;20054;-74
2020/12/09 00:04:53;;;;;;;9.70;5.78;;;3.30;99.90;;;;;;4995117;28;20050;-74
2020/12/09 00:07:33;;;;;;;10.27;5.30;;;3.30;99.90;;;;;;4995338;28;20373;-74
2020/12/09 00:10:00;;;;;;;11.38;4.97;;;3.30;99.90;;;;;;4995209;28;20061;-71
2020/12/09 00:12:27;;;;;;;10.35;5.63;;;3.40;99.90;;;;;;4995690;28;20056;-73
2020/12/09 00:14:54;;;;;;;9.48;4.95;;;3.40;99.90;;;;;;4995233;28;20061;-71
2020/12/09 00:17:20;;;;;;;8.30;4.75;;;3.40;99.90;;;;;;5004989;28;20125;-71
2020/12/09 00:19:46;;;;;;;9.93;4.82;;;3.40;99.90;;;;;;4997195;28;20092;-72
2020/12/09 00:22:14;;;;;;;11.13;4.95;;;3.40;99.90;;;;;;4994499;28;20466;-71
2020/12/09 00:24:40;;;;;;;10.98;5.72;;;3.40;99.90;;;;;;4994762;28;20489;-72
2020/12/09 00:27:07;;;;;;;9.70;5.68;;;3.50;99.90;;;;;;4993162;28;20458;-72
2020/12/09 00:29:33;;;;;;;10.63;5.32;;;3.50;99.90;;;;;;4989641;28;20093;-72
2020/12/09 00:31:59;;;;;;;12.02;6.15;;;3.50;99.90;;;;;;4995002;28;20146;-72
2020/12/09 00:34:25;;;;;;;12.45;6.40;;;3.40;99.90;;;;;;4983231;28;20437;-72
2020/12/09 00:36:54;;;;;;;11.60;6.20;;;3.40;99.90;;;;;;4994265;28;20038;-72
2020/12/09 00:39:21;;;;;;;11.40;5.72;;;3.40;99.90;;;;;;4996912;28;20046;-72
2020/12/09 00:41:47;;;;;;;12.43;6.25;;;3.40;99.90;;;;;;4998053;28;20050;-72
2020/12/09 00:44:14;;;;;;;10.50;5.60;;;3.40;99.90;;;;;;4993043;28;20052;-71
2020/12/09 00:46:40;;;;;;;10.25;5.45;;;3.40;99.90;;;;;;4993810;28;20057;-72
2020/12/09 00:49:07;;;;;;;10.07;5.38;;;3.40;99.90;;;;;;4993931;28;20046;-71
2020/12/09 00:51:33;;;;;;;9.20;5.10;;;3.40;99.90;;;;;;4993915;28;20053;-72
2020/12/09 00:53:59;;;;;;;10.73;6.10;;;3.40;99.90;;;;;;4997008;28;20046;-71
2020/12/09 00:56:26;;;;;;;10.52;5.80;;;3.40;99.90;;;;;;4993127;28;20047;-71
2020/12/09 00:58:52;;;;;;;11.70;5.80;;;3.40;99.90;;;;;;4994011;28;20533;-72
2020/12/09 01:01:18;;;;;;;8.90;5.35;;;3.40;99.90;;;;;;4980359;28;20058;-72
2020/12/09 01:03:46;;;;;;;10.13;5.68;;;3.40;99.90;;;;;;4966157;28;20055;-71
2020/12/09 01:06:13;;;;;;;9.18;5.30;;;3.40;99.90;;;;;;4989528;28;20058;-72
2020/12/09 01:08:39;;;;;;;8.45;5.20;;;3.40;99.90;;;;;;4992643;28;20053;-72
2020/12/09 01:11:05;;;;;;;9.13;5.32;;;3.40;99.90;;;;;;4993673;28;20133;-72
2020/12/09 01:13:33;;;;;;;11.10;5.90;;;3.40;99.90;;;;;;4987804;28;20049;-71
2020/12/09 01:15:59;;;;;;;10.85;5.70;;;3.50;99.90;;;;;;4982146;28;20065;-71
2020/12/09 01:18:26;;;;;;;13.27;6.38;;;3.40;99.90;;;;;;4992383;28;20057;-72
2020/12/09 01:20:52;;;;;;;11.35;6.50;;;3.40;99.90;;;;;;4993082;28;20142;-71
2020/12/09 01:23:19;;;;;;;11.20;5.82;;;3.40;99.90;;;;;;5001156;28;20134;-72
2020/12/09 01:25:46;;;;;;;12.55;6.13;;;3.30;99.90;;;;;;4993190;28;20042;-72
2020/12/09 01:28:16;;;;;;;11.95;6.28;;;3.30;99.90;;;;;;4992181;28;20046;-72
2020/12/09 01:30:42;;;;;;;11.65;6.47;;;3.30;99.90;;;;;;4992890;28;20054;-72
2020/12/09 01:33:09;;;;;;;14.32;7.32;;;3.30;99.90;;;;;;4991444;28;20052;-71
2020/12/09 01:35:35;;;;;;;10.50;6.07;;;3.30;99.90;;;;;;4993455;28;20085;-72
2020/12/09 01:38:01;;;;;;;12.65;7.03;;;3.30;99.90;;;;;;4992869;28;20046;-71
2020/12/09 01:40:28;;;;;;;12.23;6.13;;;3.30;99.90;;;;;;4988811;28;20051;-71
2020/12/09 01:42:54;;;;;;;12.00;6.22;;;3.30;99.90;;;;;;4995959;28;20553;-72
2020/12/09 01:45:20;;;;;;;11.93;6.45;;;3.40;99.90;;;;;;4988736;28;20056;-71
2020/12/09 01:47:47;;;;;;;11.93;6.53;;;3.40;99.90;;;;;;4978569;28;20054;-71
2020/12/09 01:50:14;;;;;;;12.63;6.18;;;3.40;99.90;;;;;;4967806;28;20053;-72
2020/12/09 01:52:42;;;;;;;10.88;5.72;;;3.40;99.90;;;;;;4988522;28;20061;-72
2020/12/09 01:55:09;;;;;;;11.20;5.93;;;3.40;99.90;;;;;;4984771;28;20136;-71
2020/12/09 01:57:37;;;;;;;9.88;5.35;;;3.30;99.90;;;;;;4992811;28;20470;-72
2020/12/09 02:00:05;;;;;;;11.35;5.78;;;3.30;99.90;;;;;;4990386;28;20057;-72
2020/12/09 02:02:31;;;;;;;10.55;6.05;;;3.30;99.90;;;;;;4999207;28;20062;-71
2020/12/09 02:04:58;;;;;;;12.10;6.57;;;3.30;99.90;;;;;;4992913;28;20137;-72
2020/12/09 02:07:27;;;;;;;11.00;5.70;;;3.30;99.90;;;;;;4992996;28;20054;-72
2020/12/09 02:09:58;;;;;;;11.55;6.68;;;3.30;99.90;;;;;;5007406;28;20050;-71
2020/12/09 02:12:25;;;;;;;11.50;6.15;;;3.20;99.90;;;;;;5013984;28;20046;-71
2020/12/09 02:14:51;;;;;;;11.68;5.50;;;3.20;99.90;;;;;;4986757;28;20557;-71
2020/12/09 02:17:17;;;;;;;18.20;7.10;;;3.10;99.90;;;;;;5003573;28;20041;-71
2020/12/09 02:19:44;;;;;;;12.38;5.88;;;3.10;99.90;;;;;;4995400;28;20081;-71
2020/12/09 02:22:11;;;;;;;9.73;5.25;;;3.00;99.90;;;;;;4996676;28;20133;-71
2020/12/09 02:24:38;;;;;;;8.95;5.22;;;2.90;99.90;;;;;;5019323;28;20381;-71
2020/12/09 02:27:05;;;;;;;12.05;5.55;;;2.80;99.90;;;;;;4987967;28;20125;-71
2020/12/09 02:29:35;;;;;;;10.45;5.68;;;2.80;99.90;;;;;;4981027;28;20049;-71
2020/12/09 02:32:01;;;;;;;10.25;5.72;;;2.80;99.90;;;;;;4993068;28;20512;-71
2020/12/09 02:34:28;;;;;;;11.15;5.72;;;2.70;99.90;;;;;;4994042;28;20371;-72
2020/12/09 02:36:54;;;;;;;10.48;5.40;;;2.70;99.90;;;;;;4992213;28;20074;-71
2020/12/09 02:39:36;;;;;;;10.10;5.72;;;2.60;99.90;;;;;;4991390;28;20042;-71
2020/12/09 02:42:04;;;;;;;11.30;5.35;;;2.60;99.90;;;;;;4991085;28;20129;-72
2020/12/09 02:44:30;;;;;;;10.67;5.47;;;2.60;99.90;;;;;;4991980;28;20042;-71
2020/12/09 02:46:57;;;;;;;9.68;5.18;;;2.50;99.90;;;;;;4989290;28;20050;-72
2020/12/09 02:49:24;;;;;;;11.55;6.03;;;2.50;99.90;;;;;;5005982;28;20123;-72
2020/12/09 02:51:51;;;;;;;11.13;6.05;;;2.50;99.90;;;;;;5002924;28;20130;-71
2020/12/09 02:54:17;;;;;;;11.52;6.88;;;2.50;99.90;;;;;;4998368;28;20142;-71
2020/12/09 02:56:44;;;;;;;17.00;7.20;;;2.40;99.90;;;;;;5004027;28;20410;-71
2020/12/09 02:59:10;;;;;;;11.63;6.15;;;2.40;99.90;;;;;;4994006;28;20082;-71
2020/12/09 03:01:37;;;;;;;14.70;6.55;;;2.30;99.90;;;;;;4997694;28;20050;-72
2020/12/09 03:04:04;;;;;;;31.58;7.18;;;2.30;99.90;;;;;;5002557;28;20412;-71
2020/12/09 03:06:30;;;;;;;16.20;7.68;;;2.30;99.90;;;;;;4977530;28;20129;-71
2020/12/09 03:08:56;;;;;;;15.20;6.70;;;2.30;99.90;;;;;;4998984;28;20048;-71
2020/12/09 03:11:23;;;;;;;12.30;6.25;;;2.20;99.90;;;;;;4992383;28;20052;-71
2020/12/09 03:13:49;;;;;;;12.02;6.03;;;2.20;99.90;;;;;;4984640;28;20486;-71
2020/12/09 03:16:16;;;;;;;12.40;7.47;;;2.20;99.90;;;;;;4999571;28;20093;-72
2020/12/09 03:18:42;;;;;;;14.85;6.63;;;2.30;99.90;;;;;;4995633;28;20093;-70
2020/12/09 03:21:08;;;;;;;13.13;7.38;;;2.30;99.90;;;;;;4996657;28;20152;-70
2020/12/09 03:23:36;;;;;;;14.25;6.85;;;2.30;99.90;;;;;;4999800;28;20050;-74
2020/12/09 03:26:03;;;;;;;13.85;7.47;;;2.30;99.90;;;;;;4994011;28;20047;-74
2020/12/09 03:28:29;;;;;;;48.40;8.95;;;2.30;99.90;;;;;;4988832;28;20130;-74
2020/12/09 03:30:56;;;;;;;55.80;9.35;;;2.40;99.90;;;;;;4989272;28;20477;-74
2020/12/09 03:33:23;;;;;;;14.63;7.35;;;2.40;99.90;;;;;;4997818;28;20046;-74
2020/12/09 03:35:49;;;;;;;22.77;8.43;;;2.40;99.90;;;;;;4995548;28;20057;-74
2020/12/09 03:38:16;;;;;;;64.22;11.07;;;2.50;99.90;;;;;;4998119;28;20128;-74
2020/12/09 03:40:42;;;;;;;62.38;10.95;;;2.50;99.90;;;;;;4993503;28;20051;-74
2020/12/09 03:43:08;;;;;;;65.53;11.77;;;2.60;99.90;;;;;;4997361;28;20046;-74
2020/12/09 03:45:35;;;;;;;34.20;8.45;;;2.70;99.90;;;;;;4994034;28;20082;-74
2020/12/09 03:48:03;;;;;;;37.03;10.13;;;2.70;99.90;;;;;;4992811;28;20050;-74
2020/12/09 03:50:30;;;;;;;35.50;10.20;;;2.70;99.90;;;;;;4994557;28;20054;-74
2020/12/09 03:52:56;;;;;;;54.80;11.57;;;2.70;99.90;;;;;;4992974;28;20062;-74
2020/12/09 03:55:22;;;;;;;73.65;12.05;;;2.80;99.90;;;;;;4990388;28;20046;-74
2020/12/09 03:57:48;;;;;;;66.57;11.93;;;2.70;99.90;;;;;;4996691;28;20055;-74
2020/12/09 04:00:14;;;;;;;59.28;10.75;;;2.70;99.90;;;;;;5004482;28;20077;-74
2020/12/09 04:02:41;;;;;;;40.80;9.75;;;2.70;99.90;;;;;;4999917;28;20050;-74
2020/12/09 04:05:07;;;;;;;59.42;10.63;;;2.70;99.90;;;;;;4994880;28;20429;-74
2020/12/09 04:07:34;;;;;;;51.67;9.98;;;2.70;99.90;;;;;;4995483;28;20051;-74
2020/12/09 04:10:01;;;;;;;52.83;9.40;;;2.70;99.90;;;;;;4990640;28;20051;-74
2020/12/09 04:12:27;;;;;;;51.58;9.57;;;2.70;99.90;;;;;;4992378;28;20490;-74
2020/12/09 04:14:53;;;;;;;28.98;7.38;;;2.80;99.90;;;;;;4993982;28;20046;-74
2020/12/09 04:17:19;;;;;;;53.10;8.80;;;2.80;99.90;;;;;;4995148;28;20057;-74
2020/12/09 04:19:47;;;;;;;36.05;10.13;;;2.80;99.90;;;;;;5002629;28;20046;-74
2020/12/09 04:22:14;;;;;;;20.58;7.43;;;2.80;99.90;;;;;;4994214;28;20050;-74
2020/12/09 04:24:41;;;;;;;21.50;7.25;;;2.90;99.90;;;;;;4994092;28;20053;-74
2020/12/09 04:27:08;;;;;;;43.63;8.30;;;2.80;99.90;;;;;;4998538;28;20072;-74
2020/12/09 04:29:35;;;;;;;33.20;7.93;;;2.80;99.90;;;;;;4993473;28;20129;-74
2020/12/09 04:32:01;;;;;;;31.67;7.88;;;2.80;99.90;;;;;;4989734;28;20065;-74
2020/12/09 04:34:27;;;;;;;30.00;8.30;;;2.80;99.90;;;;;;4987745;28;20389;-74
2020/12/09 04:36:54;;;;;;;37.60;8.63;;;2.80;99.90;;;;;;4982080;28;20077;-74
2020/12/09 04:39:22;;;;;;;63.22;9.77;;;2.80;99.90;;;;;;5000461;28;20486;-74
2020/12/09 04:41:49;;;;;;;43.35;8.82;;;2.80;99.90;;;;;;4999644;28;20130;-74
2020/12/09 04:44:16;;;;;;;40.45;8.30;;;2.80;99.90;;;;;;4993499;28;20444;-74
2020/12/09 04:46:50;;;;;;;43.80;8.85;;;2.70;99.90;;;;;;4992484;28;20137;-74
2020/12/09 04:49:22;;;;;;;27.33;8.57;;;2.70;99.90;;;;;;4987849;28;20477;-74
2020/12/09 04:52:10;;;;;;;25.58;8.05;;;2.70;99.90;;;;;;4973349;28;20046;-74
2020/12/09 04:54:45;;;;;;;21.60;7.40;;;2.70;99.90;;;;;;4992383;28;20042;-74
2020/12/09 04:57:39;;;;;;;34.30;7.97;;;2.70;99.90;;;;;;4986949;28;20551;-74
2020/12/09 05:00:08;;;;;;;14.73;7.03;;;2.70;99.90;;;;;;4967402;28;20058;-74
2020/12/09 05:02:49;;;;;;;26.30;8.35;;;2.70;99.90;;;;;;5001848;28;20069;-74
2020/12/09 05:05:18;;;;;;;34.60;9.02;;;2.60;99.90;;;;;;5009255;28;20053;-74
2020/12/09 05:07:53;;;;;;;29.83;9.82;;;2.60;99.90;;;;;;5009119;28;20057;-74
2020/12/09 05:10:23;;;;;;;24.63;8.38;;;2.60;99.90;;;;;;5007056;28;20094;-74
2020/12/09 05:12:54;;;;;;;27.83;8.75;;;2.50;99.90;;;;;;5007150;28;20045;-74
2020/12/09 05:15:22;;;;;;;35.45;10.05;;;2.50;99.90;;;;;;5009891;28;20092;-74
2020/12/09 05:18:05;;;;;;;40.67;10.52;;;2.40;99.90;;;;;;5006923;28;20145;-74
2020/12/09 05:20:36;;;;;;;16.85;8.55;;;2.40;99.90;;;;;;5011178;28;20060;-73
2020/12/09 05:23:05;;;;;;;24.17;8.95;;;2.20;99.90;;;;;;5009621;28;20064;-74
2020/12/09 05:25:33;;;;;;;37.88;9.77;;;2.10;99.90;;;;;;5017585;28;20048;-74
2020/12/09 05:28:01;;;;;;;42.00;10.98;;;1.90;99.90;;;;;;4999449;28;20104;-74
2020/12/09 05:30:47;;;;;;;17.10;7.82;;;1.80;99.90;;;;;;5007176;28;20061;-74
2020/12/09 05:33:20;;;;;;;21.08;7.97;;;1.60;99.90;;;;;;5002128;28;20042;-73
2020/12/09 05:35:56;;;;;;;37.60;9.27;;;1.50;99.90;;;;;;5011506;28;20466;-74
2020/12/09 05:38:24;;;;;;;21.13;7.78;;;1.50;99.90;;;;;;5010370;28;20046;-73
2020/12/09 05:40:50;;;;;;;93.03;14.10;;;1.40;99.90;;;;;;5010722;28;20125;-73
2020/12/09 05:43:18;;;;;;;33.58;7.90;;;1.40;99.90;;;;;;5008949;28;20050;-73
2020/12/09 05:45:44;;;;;;;35.92;8.40;;;1.40;99.90;;;;;;5011530;28;20485;-73
2020/12/09 05:48:22;;;;;;;35.10;8.70;;;1.40;99.90;;;;;;5009584;28;20050;-74
2020/12/09 05:50:59;;;;;;;24.73;9.80;;;1.40;99.90;;;;;;5011938;28;20050;-73
2020/12/09 05:53:30;;;;;;;38.55;9.10;;;1.40;99.90;;;;;;4992890;28;20068;-73
2020/12/09 05:56:08;;;;;;;26.77;8.05;;;1.40;99.90;;;;;;5011449;28;20045;-73
2020/12/09 05:58:39;;;;;;;18.38;7.80;;;1.50;99.90;;;;;;5008622;28;20045;-71
2020/12/09 06:01:13;;;;;;;32.05;9.75;;;1.50;99.90;;;;;;5007201;28;20049;-71
2020/12/09 06:03:51;;;;;;;22.02;8.00;;;1.50;99.90;;;;;;4990398;28;20058;-71
2020/12/09 06:06:20;;;;;;;23.17;7.88;;;1.40;99.90;;;;;;4992415;28;20058;-71
2020/12/09 06:08:56;;;;;;;22.58;7.53;;;1.40;99.90;;;;;;4989569;28;20061;-71
2020/12/09 06:11:31;;;;;;;23.40;7.53;;;1.40;99.90;;;;;;4991654;28;20129;-71
2020/12/09 06:13:58;;;;;;;22.13;7.53;;;1.30;99.90;;;;;;4990813;28;20137;-71
2020/12/09 06:16:25;;;;;;;35.45;8.40;;;1.30;99.90;;;;;;4978499;28;20140;-71
2020/12/09 06:18:54;;;;;;;26.77;7.20;;;1.30;99.90;;;;;;4990369;28;20078;-71
2020/12/09 06:21:21;;;;;;;23.70;7.25;;;1.30;99.90;;;;;;4992476;28;20133;-73
2020/12/09 06:23:48;;;;;;;29.30;7.55;;;1.30;99.90;;;;;;4990402;28;20081;-70
2020/12/09 06:26:15;;;;;;;24.02;7.57;;;1.30;99.90;;;;;;4995308;28;20065;-73
2020/12/09 06:28:46;;;;;;;24.42;8.05;;;1.30;99.90;;;;;;4990033;28;20089;-74
2020/12/09 06:31:17;;;;;;;23.02;7.88;;;1.20;99.90;;;;;;4984428;28;20050;-73
2020/12/09 06:33:46;;;;;;;28.50;8.25;;;1.00;99.90;;;;;;4992094;28;20061;-73
2020/12/09 06:36:13;;;;;;;39.15;10.13;;;1.00;99.90;;;;;;4993332;28;20046;-73
2020/12/09 06:38:40;;;;;;;15.32;7.03;;;0.90;99.90;;;;;;4988418;28;20104;-73
2020/12/09 06:41:06;;;;;;;27.35;6.50;;;0.80;99.90;;;;;;4994501;28;20442;-73
2020/12/09 06:43:33;;;;;;;13.68;6.38;;;0.80;99.90;;;;;;4993579;28;20053;-73
2020/12/09 06:45:59;;;;;;;18.77;7.90;;;0.80;99.90;;;;;;4990929;28;20149;-73
2020/12/09 06:48:25;;;;;;;36.50;9.02;;;0.70;99.90;;;;;;4996253;28;20046;-73
2020/12/09 06:50:51;;;;;;;16.35;6.32;;;0.60;99.90;;;;;;4993631;28;21042;-73
2020/12/09 06:53:19;;;;;;;28.15;8.43;;;0.50;99.90;;;;;;4991019;28;20134;-73
2020/12/09 06:55:48;;;;;;;18.80;6.43;;;0.40;99.90;;;;;;4992474;28;20038;-73
2020/12/09 06:58:21;;;;;;;17.13;7.53;;;0.50;99.90;;;;;;4986040;28;20050;-73
2020/12/09 07:01:08;;;;;;;18.15;6.32;;;0.50;99.90;;;;;;4993259;28;20536;-73
2020/12/09 07:03:38;;;;;;;15.30;7.50;;;0.50;99.90;;;;;;5006027;28;20081;-73
2020/12/09 07:06:16;;;;;;;20.90;8.13;;;0.50;99.90;;;;;;5011606;28;20056;-73
2020/12/09 07:08:46;;;;;;;19.20;6.90;;;0.50;99.90;;;;;;5007195;28;20052;-73
2020/12/09 07:11:14;;;;;;;14.82;7.13;;;0.50;99.90;;;;;;5011176;28;20137;-72
2020/12/09 07:13:41;;;;;;;22.70;8.02;;;0.50;99.90;;;;;;5010116;28;20060;-72
2020/12/09 07:16:08;;;;;;;102.30;16.63;;;0.50;99.90;;;;;;5012964;28;20038;-72
2020/12/09 07:18:37;;;;;;;49.72;11.82;;;0.50;99.90;;;;;;5009443;28;20126;-72
2020/12/09 07:21:06;;;;;;;17.60;7.85;;;0.50;99.90;;;;;;5007133;28;20057;-72
2020/12/09 07:23:36;;;;;;;16.65;6.47;;;0.50;99.90;;;;;;5011356;28;20060;-72
2020/12/09 07:26:03;;;;;;;31.08;8.63;;;0.50;99.90;;;;;;5014158;28;20156;-72
2020/12/09 07:28:32;;;;;;;17.38;7.38;;;0.40;99.90;;;;;;5010485;28;20050;-72
2020/12/09 07:31:06;;;;;;;25.00;8.23;;;0.40;99.90;;;;;;5009355;28;20050;-72
2020/12/09 07:33:33;;;;;;;19.60;8.68;;;0.40;99.90;;;;;;5007549;28;20137;-72
2020/12/09 07:36:06;;;;;;;30.77;9.48;;;0.40;99.90;;;;;;5014590;28;20533;-72
2020/12/09 07:38:32;;;;;;;39.22;10.77;;;0.40;99.90;;;;;;4995188;28;20052;-72
2020/12/09 07:41:03;;;;;;;31.60;10.50;;;0.40;99.90;;;;;;5014635;28;20049;-72
2020/12/09 07:43:29;;;;;;;35.17;11.95;;;0.40;99.90;;;;;;5012659;28;20489;-72
2020/12/09 07:46:04;;;;;;;26.20;12.32;;;0.40;99.90;;;;;;5014299;28;20052;-72
2020/12/09 07:48:31;;;;;;;25.65;9.88;;;0.40;99.90;;;;;;5010857;28;20087;-72
2020/12/09 07:50:59;;;;;;;37.58;10.30;;;0.40;99.90;;;;;;5012363;28;20068;-73
2020/12/09 07:53:26;;;;;;;31.23;12.30;;;0.40;99.90;;;;;;5006154;28;20446;-72
2020/12/09 07:55:52;;;;;;;24.33;10.38;;;0.40;99.90;;;;;;5008443;28;20038;-72
2020/12/09 07:58:19;;;;;;;20.77;10.20;;;0.40;99.90;;;;;;5002047;28;20567;-72
2020/12/09 08:00:47;;;;;;;42.72;15.52;;;0.40;99.90;;;;;;5006168;28;20474;-72
2020/12/09 08:03:23;;;;;;;50.15;14.25;;;0.30;99.90;;;;;;4983710;28;20042;-72
2020/12/09 08:05:50;;;;;;;37.55;12.73;;;0.30;99.90;;;;;;4998440;28;20046;-71
2020/12/09 08:08:20;;;;;;;32.65;14.10;;;0.20;99.90;;;;;;4984693;28;20065;-70
2020/12/09 08:10:48;;;;;;;42.72;14.68;;;0.20;99.90;;;;;;4998521;28;20137;-70
2020/12/09 08:13:25;;;;;;;34.22;11.82;;;0.20;99.90;;;;;;4974834;28;20048;-70
2020/12/09 08:16:07;;;;;;;40.50;13.18;;;0.20;99.90;;;;;;4980913;28;20069;-70
2020/12/09 08:18:34;;;;;;;29.00;11.93;;;0.20;99.90;;;;;;4992288;28;20429;-70
2020/12/09 08:21:01;;;;;;;26.33;13.98;;;0.20;99.90;;;;;;4993664;28;20089;-70
2020/12/09 08:23:48;;;;;;;30.35;13.25;;;0.20;99.90;;;;;;4974645;28;20227;-70
2020/12/09 08:26:35;;;;;;;37.92;14.93;;;0.20;99.90;;;;;;4984423;28;20054;-70
2020/12/09 08:29:02;;;;;;;41.92;14.40;;;0.10;99.90;;;;;;4974750;28;20049;-70
2020/12/09 08:31:28;;;;;;;31.35;13.10;;;0.10;99.90;;;;;;4992936;28;20130;-70
2020/12/09 08:33:54;;;;;;;50.13;15.20;;;0.20;99.90;;;;;;4992812;28;20054;-70
2020/12/09 08:36:21;;;;;;;21.50;9.85;;;0.20;99.90;;;;;;5003268;28;20481;-70
2020/12/09 08:38:50;;;;;;;78.57;24.65;;;0.20;99.90;;;;;;4990822;28;20050;-70
2020/12/09 08:41:29;;;;;;;27.92;11.75;;;0.30;99.90;;;;;;4991717;28;20067;-70
2020/12/09 08:44:00;;;;;;;26.25;10.88;;;0.30;99.90;;;;;;4987068;28;20093;-70
2020/12/09 08:46:28;;;;;;;35.47;12.85;;;0.30;99.90;;;;;;4990575;28;20051;-70
2020/12/09 08:48:56;;;;;;;22.95;11.70;;;0.30;99.90;;;;;;4988403;28;20049;-70
2020/12/09 08:51:24;;;;;;;23.52;11.95;;;0.30;99.90;;;;;;4988747;28;20052;-70
2020/12/09 08:53:51;;;;;;;21.48;10.77;;;0.40;99.90;;;;;;4990157;28;20089;-71
2020/12/09 08:56:24;;;;;;;24.80;12.48;;;0.40;99.90;;;;;;4994775;28;20050;-70
2020/12/09 08:58:50;;;;;;;31.90;14.02;;;0.40;99.90;;;;;;4992931;28;20125;-70
2020/12/09 09:01:17;;;;;;;29.95;13.80;;;0.40;99.90;;;;;;4994875;28;20076;-70
2020/12/09 09:03:45;;;;;;;25.00;11.90;;;0.50;99.90;;;;;;4991885;28;20046;-70
2020/12/09 09:06:12;;;;;;;25.63;12.80;;;0.50;99.90;;;;;;4990385;28;20054;-70
2020/12/09 09:08:38;;;;;;;26.35;11.65;;;0.50;99.90;;;;;;4984771;28;20173;-70
2020/12/09 09:11:04;;;;;;;22.33;10.80;;;0.50;99.90;;;;;;4991861;28;20042;-70
2020/12/09 09:13:31;;;;;;;21.23;10.60;;;0.50;99.90;;;;;;4988551;28;20054;-70
2020/12/09 09:15:57;;;;;;;35.85;11.90;;;0.40;99.90;;;;;;4990208;28;20082;-70
2020/12/09 09:18:23;;;;;;;26.23;11.00;;;0.40;99.90;;;;;;4989195;28;20050;-69
2020/12/09 09:20:53;;;;;;;22.25;11.20;;;0.40;99.90;;;;;;4986454;28;20474;-70
2020/12/09 09:23:19;;;;;;;25.35;12.73;;;0.40;99.90;;;;;;4991248;28;20054;-69
2020/12/09 09:25:45;;;;;;;28.20;12.13;;;0.40;99.90;;;;;;4994244;28;20092;-69
2020/12/09 09:28:12;;;;;;;24.17;11.23;;;0.40;99.90;;;;;;4990335;28;20073;-69
2020/12/09 09:30:38;;;;;;;21.20;11.20;;;0.40;99.90;;;;;;4983664;28;20149;-69
2020/12/09 09:33:04;;;;;;;26.60;12.32;;;0.50;99.90;;;;;;4990718;28;20053;-71
2020/12/09 09:35:31;;;;;;;23.73;11.38;;;0.50;99.90;;;;;;4986753;28;20077;-70
2020/12/09 09:37:57;;;;;;;33.50;14.18;;;0.50;99.90;;;;;;4989151;28;20123;-70
2020/12/09 09:40:23;;;;;;;28.42;13.32;;;0.60;99.90;;;;;;4990486;28;20405;-71
2020/12/09 09:42:54;;;;;;;30.35;11.77;;;0.60;99.90;;;;;;4986460;28;20455;-70
2020/12/09 09:45:22;;;;;;;23.33;11.50;;;0.60;99.90;;;;;;4986562;28;20050;-71
2020/12/09 09:47:48;;;;;;;21.00;10.75;;;0.70;99.90;;;;;;4989621;28;20100;-71
2020/12/09 09:50:15;;;;;;;25.98;11.23;;;0.70;99.90;;;;;;4983559;28;20042;-71
2020/12/09 09:52:41;;;;;;;24.05;9.98;;;0.70;99.90;;;;;;4989608;28;20076;-70
2020/12/09 09:55:07;;;;;;;30.33;11.68;;;0.80;99.90;;;;;;4990839;28;20046;-70
2020/12/09 09:57:36;;;;;;;20.42;10.13;;;0.80;99.90;;;;;;4984080;28;20065;-71
2020/12/09 10:00:05;;;;;;;18.83;9.27;;;0.80;99.90;;;;;;4990480;28;20050;-71
2020/12/09 10:02:31;;;;;;;22.92;10.30;;;0.80;99.90;;;;;;4999802;28;20086;-70
2020/12/09 10:04:58;;;;;;;21.40;11.35;;;0.80;99.90;;;;;;4990282;28;20054;-71
2020/12/09 10:07:24;;;;;;;35.00;15.48;;;0.90;99.90;;;;;;4985262;28;20056;-70
2020/12/09 10:09:51;;;;;;;26.55;12.48;;;0.90;99.90;;;;;;4986986;28;20050;-70
2020/12/09 10:12:17;;;;;;;26.83;11.60;;;0.90;99.90;;;;;;4985575;28;20125;-71
2020/12/09 10:14:44;;;;;;;28.20;12.25;;;1.00;99.90;;;;;;4986634;28;20047;-70
2020/12/09 10:17:10;;;;;;;22.17;11.07;;;1.00;99.90;;;;;;4989603;28;20129;-71
2020/12/09 10:19:36;;;;;;;24.10;10.90;;;1.00;99.90;;;;;;4990991;28;20047;-70
2020/12/09 10:22:03;;;;;;;26.88;13.32;;;1.00;99.90;;;;;;4986322;28;20046;-71
2020/12/09 10:24:29;;;;;;;23.00;11.40;;;1.10;99.90;;;;;;4983510;28;20063;-70
2020/12/09 10:26:55;;;;;;;38.40;14.27;;;1.20;99.90;;;;;;4990122;28;20138;-70
2020/12/09 10:29:22;;;;;;;30.20;14.52;;;1.20;99.90;;;;;;4988102;28;20064;-70
2020/12/09 10:31:49;;;;;;;32.60;14.05;;;1.20;99.90;;;;;;4990599;28;20081;-70
2020/12/09 10:34:19;;;;;;;34.75;13.40;;;1.20;99.90;;;;;;4989918;28;20045;-70
2020/12/09 10:36:51;;;;;;;25.42;11.95;;;1.20;99.90;;;;;;4989544;28;20413;-70
2020/12/09 10:39:22;;;;;;;33.28;14.27;;;1.10;99.90;;;;;;4989430;28;20086;-70
2020/12/09 10:41:49;;;;;;;36.90;15.20;;;1.20;99.90;;;;;;4991956;28;20469;-70
2020/12/09 10:44:18;;;;;;;38.47;15.20;;;1.10;99.90;;;;;;4970481;28;20042;-69
2020/12/09 10:46:45;;;;;;;29.75;12.70;;;1.10;99.90;;;;;;4990531;28;20465;-69
2020/12/09 10:49:13;;;;;;;27.40;11.35;;;1.10;99.90;;;;;;4984416;28;20134;-69
2020/12/09 10:51:48;;;;;;;26.85;11.73;;;1.10;99.90;;;;;;4987802;28;20050;-69
2020/12/09 10:54:16;;;;;;;40.38;16.52;;;1.10;99.90;;;;;;4987939;28;20137;-69
2020/12/09 10:56:43;;;;;;;39.70;15.45;;;1.10;99.90;;;;;;4988209;28;20050;-70
2020/12/09 10:59:17;;;;;;;37.30;14.43;;;1.10;99.90;;;;;;4989547;28;20059;-69
2020/12/09 11:01:45;;;;;;;;;;;1.10;99.90;;;;;;4991364;28;20141;-70
2020/12/09 11:04:14;;;;;;;64.40;19.40;;;1.10;99.90;;;;;;4987608;28;19929;-70
2020/12/09 11:06:44;;;;;;;33.17;13.98;;;1.10;99.90;;;;;;4978499;28;20046;-70
2020/12/09 11:09:11;;;;;;;40.47;16.90;;;1.20;99.90;;;;;;4989610;28;20064;-70
2020/12/09 11:11:39;;;;;;;50.13;19.35;;;1.20;99.90;;;;;;4993259;28;20562;-70
2020/12/09 11:14:05;;;;;;;42.90;16.95;;;1.20;99.90;;;;;;4974685;28;20437;-70
2020/12/09 11:16:33;;;;;;;35.03;14.52;;;1.20;99.90;;;;;;4994711;28;20446;-70
2020/12/09 11:18:59;;;;;;;39.53;16.10;;;1.20;99.90;;;;;;4992710;28;20442;-70
2020/12/09 11:21:27;;;;;;;57.60;17.90;;;1.20;99.90;;;;;;4993951;28;20061;-70
2020/12/09 11:23:53;;;;;;;31.48;12.40;;;1.20;99.90;;;;;;4992790;28;20134;-70
2020/12/09 11:26:21;;;;;;;37.88;14.60;;;1.20;99.90;;;;;;4994072;28;20074;-70
2020/12/09 11:28:47;;;;;;;29.40;12.75;;;1.30;99.90;;;;;;4973750;28;20073;-70
2020/12/09 11:31:14;;;;;;;34.50;13.02;;;1.30;99.90;;;;;;4993870;28;20560;-70
2020/12/09 11:33:40;;;;;;;43.80;17.00;;;1.30;99.90;;;;;;4992336;28;20042;-70
2020/12/09 11:36:06;;;;;;;48.25;17.55;;;1.40;99.90;;;;;;4993322;28;20049;-70
2020/12/09 11:38:33;;;;;;;35.60;14.30;;;1.40;99.90;;;;;;4992919;28;20480;-70
2020/12/09 11:41:01;;;;;;;42.80;15.25;;;1.40;99.90;;;;;;4992927;28;20130;-70
2020/12/09 11:43:27;;;;;;;38.42;15.73;;;1.40;99.90;;;;;;4991832;28;20069;-70
2020/12/09 11:45:57;;;;;;;38.05;14.85;;;1.40;99.90;;;;;;4992982;28;20046;-70
2020/12/09 11:48:25;;;;;;;37.15;14.30;;;1.40;99.90;;;;;;4991221;28;20062;-70
2020/12/09 11:50:52;;;;;;;71.55;20.92;;;1.40;99.90;;;;;;4992592;28;20504;-70
2020/12/09 11:53:35;;;;;;;37.47;13.40;;;1.50;99.90;;;;;;4993464;28;20051;-70
2020/12/09 11:56:02;;;;;;;32.63;14.60;;;1.50;99.90;;;;;;4991511;28;20453;-70
2020/12/09 11:58:31;;;;;;;46.83;15.27;;;1.50;99.90;;;;;;4987763;28;20050;-71
2020/12/09 12:00:58;;;;;;;41.55;15.15;;;1.50;99.90;;;;;;4992743;28;21271;-70
2020/12/09 12:03:25;;;;;;;39.58;15.68;;;1.50;99.90;;;;;;4993576;28;20125;-70
2020/12/09 12:05:54;;;;;;;41.63;16.92;;;1.50;99.90;;;;;;4993914;28;20086;-70
2020/12/09 12:08:20;;;;;;;;;;;1.50;99.90;;;;;;4994850;28;20145;-71
2020/12/09 12:10:47;;;;;;;43.97;14.88;;;1.50;99.90;;;;;;4992602;28;19922;-70
2020/12/09 12:13:13;;;;;;;44.60;16.83;;;1.50;99.90;;;;;;4989034;28;20050;-71
2020/12/09 12:15:41;;;;;;;39.72;15.40;;;1.50;99.90;;;;;;4985585;28;20046;-70
2020/12/09 12:18:08;;;;;;;40.20;14.10;;;1.50;99.90;;;;;;4990402;28;20050;-70
2020/12/09 12:20:35;;;;;;;45.60;16.95;;;1.50;99.90;;;;;;4993303;28;20056;-70
2020/12/09 12:23:01;;;;;;;37.47;13.73;;;1.50;99.90;;;;;;4991469;28;20064;-70
2020/12/09 12:25:27;;;;;;;38.25;16.40;;;1.60;99.90;;;;;;5001331;28;20334;-70
2020/12/09 12:27:53;;;;;;;45.45;17.40;;;1.60;99.90;;;;;;4993146;28;20050;-71
2020/12/09 12:30:20;;;;;;;40.67;16.80;;;1.60;99.90;;;;;;4990638;28;20388;-71
2020/12/09 12:32:46;;;;;;;45.97;16.75;;;1.60;99.90;;;;;;4976282;28;21980;-71
2020/12/09 12:35:14;;;;;;;50.47;16.95;;;1.60;99.90;;;;;;4986972;28;20038;-70
2020/12/09 12:37:40;;;;;;;45.58;17.70;;;1.60;99.90;;;;;;4985579;28;20053;-70
2020/12/09 12:40:07;;;;;;;48.08;16.85;;;1.60;99.90;;;;;;5005087;28;20046;-70
2020/12/09 12:42:33;;;;;;;41.60;16.10;;;1.50;99.90;;;;;;4990388;28;20054;-70
2020/12/09 12:44:59;;;;;;;38.90;16.00;;;1.50;99.90;;;;;;4993024;28;20101;-69
2020/12/09 12:47:25;;;;;;;40.38;15.73;;;1.50;99.90;;;;;;4987752;28;20972;-70